METAR Data
IDs: Format: Raw Decoded Include TAF

Data at: 2055 UTC 01 Oct 2022

KCWF 012045Z 02006KT 10SM SKC 28/08 A2997
KCWF 011955Z COR 35008KT 10SM SKC 28/08 A2998
KCWF 011846Z 02006KT 10SM SKC 28/08 A3001
KCWF 011746Z 01007KT 10SM SKC 27/09 A3003
KCWF 011654Z 06008KT 10SM SKC 26/07 A3005
KCWF 011552Z 06006KT 10SM SKC 24/10 A3005
KCWF 011445Z 08008KT 10SM SKC 21/10 A3005
KCWF 011357Z 07008KT 10SM SKC 17/10 A3005
KCWF 011254Z 03006KT 10SM SKC 14/09 A3004
KCWF 011150Z 03004KT 10SM SKC 13/08 A3001
KCWF 011100Z 04005KT 10SM SKC 14/09 A3000
KCWF 011035Z AUTO 03006KT 10SM CLR 14/09 A2999 RMK AO2 T01450088
KCWF 011015Z AUTO 03007KT 10SM CLR 14/09 A2998 RMK AO2 T01450090
KCWF 010955Z AUTO 03008KT 10SM CLR 15/09 A2998 RMK AO2 T01470091
KCWF 010935Z AUTO 03008KT 10SM CLR 15/09 A2997 RMK AO2 T01510091
KCWF 010915Z AUTO 03007KT 10SM CLR 15/09 A2997 RMK AO2 T01500093
KCWF 010855Z AUTO 03006KT 10SM CLR 15/09 A2997 RMK AO2 T01510094
KCWF 010835Z AUTO 02007KT 10SM CLR 15/09 A2997 RMK AO2 T01510093
KCWF 010815Z AUTO 02006KT 10SM CLR 15/09 A2997 RMK AO2 T01510094
KCWF 010755Z AUTO 02006KT 10SM CLR 15/10 A2997 RMK AO2 T01490096
KCWF 010735Z AUTO 02006KT 10SM CLR 15/10 A2997 RMK AO2 T01520098
KCWF 010715Z AUTO 02005KT 10SM CLR 15/10 A2997 RMK AO2 T01540099
KCWF 010655Z AUTO 03006KT 10SM CLR 15/10 A2997 RMK AO2 T01540099
KCWF 010635Z AUTO 02005KT 10SM CLR 16/10 A2996 RMK AO2 T01560097
KCWF 010615Z AUTO 03005KT 10SM CLR 16/09 A2997 RMK AO2 T01580094
KCWF 010555Z AUTO 02005KT 10SM CLR 16/10 A2997 RMK AO2 T01580096 10232 20145
KCWF 010535Z AUTO 03005KT 10SM CLR 16/10 A2997 RMK AO2 T01580098
KCWF 010515Z AUTO 04004KT 10SM CLR 15/10 A2997 RMK AO2 T01480098
KCWF 010455Z AUTO 04004KT 10SM CLR 17/09 A2997 RMK AO2 T01660095
KCWF 010435Z AUTO 02005KT 10SM CLR 17/10 A2997 RMK AO2 T01710096
KCWF 010415Z AUTO 02005KT 10SM CLR 18/10 A2997 RMK AO2 T01790096
KCWF 010355Z AUTO 02004KT 10SM CLR 18/10 A2997 RMK AO2 T01800097
KCWF 010335Z AUTO 01005KT 10SM CLR 18/10 A2997 RMK AO2 T01810099
KCWF 010315Z AUTO 36004KT 10SM CLR 18/10 A2997 RMK AO2 T01830100
KCWF 010245Z 02004KT 10SM SKC 19/10 A2997 RMK LAST
KCWF 010148Z 02003KT 10SM SKC 19/10 A2997
KCWF 010046Z 04004KT 10SM SKC 22/09 A2995
KCWF 302345Z 03004KT 10SM SKC 24/08 A2995
KCWF 302250Z 06008KT 10SM SKC 26/07 A2993
KCWF 302155Z 04007KT 10SM SKC 26/07 A2994
KCWF 302054Z 01009KT 10SM SKC 27/08 A2995
KCWF 301945Z 35009G16KT 10SM SKC 26/07 A2996
KCWF 301852Z 05011KT 10SM SKC 26/08 A2999
KCWF 301747Z 02012KT 10SM SKC 24/06 A3002
KCWF 301645Z 04010G15KT 10SM SKC 23/07 A3005
KCWF 301555Z 04010KT 10SM SKC 18/09 A3007
KCWF 301450Z 04008KT 10SM SKC 18/09 A3008
KCWF 301349Z 03008KT 10SM SKC 16/08 A3007
KCWF 301250Z 03007KT 10SM SKC 13/08 A3007
KCWF 301153Z 02007KT 10SM SKC 12/07 A3007
KCWF 301100Z 02007KT 10SM SKC 12/07 A3006
KCWF 301035Z AUTO 36005KT 10SM CLR 12/07 A3006 RMK AO2 T01220073
KCWF 301015Z AUTO 36006KT 10SM CLR 12/07 A3006 RMK AO2 T01230073
KCWF 300955Z AUTO 36006KT 10SM CLR 13/07 A3005 RMK AO2 T01270073
KCWF 300935Z AUTO 01005KT 10SM CLR 13/07 A3005 RMK AO2 T01300074
KCWF 300915Z AUTO 01005KT 10SM CLR 13/07 A3005 RMK AO2 T01280075